Time;durP1;ratioP1;P1;durP2;ratioP2;P2;SDS_P1;SDS_P2;PMS_P1;PMS_P2;Temp;Humidity;BMP_temperature;BMP_pressure;BME280_temperature;BME280_humidity;BME280_pressure;Samples;Min_cycle;Max_cycle;Signal;HPM_P1;HPM_P2
2022/12/11 00:02:20;;;;;;;34.38;13.60;;;-1.20;99.90;;;;;;5111837;28;20079;-75
2022/12/11 00:04:46;;;;;;;40.70;13.50;;;-0.50;99.90;;;;;;5094949;28;20075;-75
2022/12/11 00:07:13;;;;;;;39.45;12.73;;;-1.20;99.90;;;;;;5111667;28;20050;-75
2022/12/11 00:09:41;;;;;;;36.25;12.80;;;-0.70;99.90;;;;;;5094640;28;20086;-75
2022/12/11 00:12:08;;;;;;;32.13;11.88;;;-1.20;99.90;;;;;;5078392;28;20135;-75
2022/12/11 00:14:34;;;;;;;32.00;11.93;;;-1.20;99.90;;;;;;5094894;28;20059;-76
2022/12/11 00:17:03;;;;;;;42.20;12.25;;;-0.50;99.90;;;;;;5077946;28;20040;-75
2022/12/11 00:19:29;;;;;;;31.67;11.95;;;0.00;99.90;;;;;;5111811;28;20039;-76
2022/12/11 00:21:56;;;;;;;35.42;11.93;;;-1.30;99.90;;;;;;5077854;28;20090;-76
2022/12/11 00:24:23;;;;;;;34.95;11.32;;;-0.10;99.90;;;;;;5094565;28;20068;-75
2022/12/11 00:26:50;;;;;;;32.30;11.43;;;-1.40;99.90;;;;;;5094741;28;20075;-76
2022/12/11 00:29:17;;;;;;;33.05;11.25;;;-1.40;99.90;;;;;;5061389;28;20118;-76
2022/12/11 00:31:45;;;;;;;29.02;11.48;;;-0.50;99.90;;;;;;5094491;28;20093;-75
2022/12/11 00:34:11;;;;;;;28.73;11.05;;;-1.40;99.90;;;;;;5078377;28;20056;-76
2022/12/11 00:36:38;;;;;;;37.60;11.77;;;-1.40;99.90;;;;;;5078057;28;20088;-76
2022/12/11 00:39:06;;;;;;;37.03;13.13;;;-1.40;99.90;;;;;;5110843;28;20047;-75
2022/12/11 00:41:33;;;;;;;39.28;13.50;;;-1.40;99.90;;;;;;5094291;28;20433;-75
2022/12/11 00:44:00;;;;;;;35.55;13.48;;;-0.60;99.90;;;;;;5077265;28;20115;-75
2022/12/11 00:46:27;;;;;;;35.55;12.48;;;-0.20;99.90;;;;;;5110643;28;20048;-75
2022/12/11 00:48:53;;;;;;;32.33;12.07;;;-1.50;99.90;;;;;;5093898;28;20388;-75
2022/12/11 00:51:24;;;;;;;33.67;12.15;;;-0.20;99.90;;;;;;5129082;28;20039;-75
2022/12/11 00:53:51;;;;;;;32.60;11.45;;;-1.40;99.90;;;;;;5093968;28;20332;-75
2022/12/11 00:56:21;;;;;;;28.17;11.13;;;-1.30;99.90;;;;;;5077623;28;20118;-76
2022/12/11 00:58:48;;;;;;;24.17;10.50;;;-1.50;99.90;;;;;;5110387;28;20051;-76
2022/12/11 01:01:18;;;;;;;45.22;12.52;;;-1.50;99.90;;;;;;5110414;28;20053;-75
2022/12/11 01:03:45;;;;;;;29.40;11.30;;;-1.50;99.90;;;;;;5093526;28;20032;-76
2022/12/11 01:06:14;;;;;;;35.83;12.82;;;-1.50;99.90;;;;;;5110449;28;20125;-75
2022/12/11 01:08:42;;;;;;;34.22;11.27;;;-0.30;99.90;;;;;;5110232;28;20407;-75
2022/12/11 01:11:12;;;;;;;30.05;11.43;;;-0.30;99.90;;;;;;5093436;28;20450;-75
2022/12/11 01:13:40;;;;;;;33.40;11.52;;;-1.40;99.90;;;;;;5110270;28;20040;-75
2022/12/11 01:16:13;;;;;;;33.00;11.95;;;-1.40;99.90;;;;;;5093424;28;20044;-75
2022/12/11 01:18:40;;;;;;;34.55;12.30;;;-1.40;99.90;;;;;;5093477;28;20482;-75
2022/12/11 01:21:12;;;;;;;33.38;12.18;;;-1.40;99.90;;;;;;5109759;28;20044;-75
2022/12/11 01:23:39;;;;;;;28.88;11.88;;;-1.30;99.90;;;;;;5077441;28;20042;-76
2022/12/11 01:26:13;;;;;;;29.65;10.40;;;-1.40;99.90;;;;;;5093090;28;20101;-75
2022/12/11 01:28:42;;;;;;;26.55;10.68;;;-1.30;99.90;;;;;;5093835;28;20404;-75
2022/12/11 01:31:10;;;;;;;36.10;11.23;;;-1.30;99.90;;;;;;5076464;28;20471;-75
2022/12/11 01:33:38;;;;;;;28.48;10.52;;;-0.40;99.90;;;;;;5093439;28;20044;-75
2022/12/11 01:36:14;;;;;;;29.13;10.27;;;-1.70;99.90;;;;;;5076502;28;20046;-75
2022/12/11 01:38:41;;;;;;;28.63;10.02;;;-0.80;99.90;;;;;;5109895;28;20040;-75
2022/12/11 01:41:09;;;;;;;26.85;10.00;;;-1.20;99.90;;;;;;5075924;28;20047;-75
2022/12/11 01:44:06;;;;;;;27.85;10.27;;;0.00;99.90;;;;;;5076093;28;20040;-75
2022/12/11 01:46:35;;;;;;;28.20;10.40;;;-1.20;99.90;;;;;;5110087;28;20036;-75
2022/12/11 01:49:06;;;;;;;27.38;10.27;;;-1.20;99.90;;;;;;5092851;28;20415;-75
2022/12/11 01:51:41;;;;;;;30.42;11.00;;;-1.20;99.90;;;;;;5093008;28;20048;-75
2022/12/11 01:54:11;;;;;;;25.95;10.10;;;-1.10;99.90;;;;;;5077089;28;20044;-75
2022/12/11 01:56:40;;;;;;;26.45;9.80;;;-1.10;99.90;;;;;;5109774;28;20101;-75
2022/12/11 01:59:09;;;;;;;25.85;9.48;;;-1.10;99.90;;;;;;5092989;28;20551;-75
2022/12/11 02:02:09;;;;;;;28.88;9.95;;;-0.60;99.90;;;;;;5109495;28;20198;-75
2022/12/11 02:04:38;;;;;;;26.88;9.50;;;-1.10;99.90;;;;;;5108863;28;20040;-75
2022/12/11 02:07:05;;;;;;;26.42;9.15;;;-1.10;99.90;;;;;;5092889;28;20523;-75
2022/12/11 02:09:35;;;;;;;28.52;10.13;;;-1.10;99.90;;;;;;5109727;28;20036;-75
2022/12/11 02:12:12;;;;;;;22.50;8.98;;;-0.20;99.90;;;;;;5075835;28;20044;-75
2022/12/11 02:15:01;;;;;;;21.63;8.93;;;-1.10;99.90;;;;;;5072239;28;20052;-75
2022/12/11 02:17:43;;;;;;;26.13;9.52;;;-1.10;99.90;;;;;;5081353;28;20063;-75
2022/12/11 02:20:15;;;;;;;26.98;9.23;;;-0.10;99.90;;;;;;5072366;28;20044;-75
2022/12/11 02:23:11;;;;;;;30.83;9.55;;;-1.10;99.90;;;;;;5074637;28;20550;-75
2022/12/11 02:25:50;;;;;;;25.93;8.53;;;-1.10;99.90;;;;;;5109438;28;20066;-75
2022/12/11 02:28:36;;;;;;;22.10;8.55;;;-1.10;99.90;;;;;;5109032;28;20036;-75
2022/12/11 02:31:19;;;;;;;28.15;10.13;;;-1.10;99.90;;;;;;5092336;28;20089;-75
2022/12/11 02:33:49;;;;;;;28.02;9.82;;;-1.00;99.90;;;;;;5092294;28;20436;-75
2022/12/11 02:36:18;;;;;;;29.13;9.60;;;0.10;99.90;;;;;;5108751;28;20118;-75
2022/12/11 02:38:49;;;;;;;24.08;9.00;;;-1.00;99.90;;;;;;5092344;28;20072;-75
2022/12/11 02:41:18;;;;;;;25.55;9.18;;;-1.00;99.90;;;;;;5092118;28;20051;-75
2022/12/11 02:43:47;;;;;;;22.27;8.70;;;-1.00;99.90;;;;;;5075635;28;20036;-76
2022/12/11 02:46:15;;;;;;;29.00;9.27;;;0.00;99.90;;;;;;5075925;28;20042;-75
2022/12/11 02:48:44;;;;;;;20.90;8.90;;;-0.70;99.90;;;;;;5092670;28;20048;-75
2022/12/11 02:51:15;;;;;;;25.45;9.52;;;-0.90;99.90;;;;;;5092603;28;20051;-75
2022/12/11 02:53:43;;;;;;;26.17;8.95;;;-1.00;99.90;;;;;;5092508;28;20060;-76
2022/12/11 02:56:17;;;;;;;24.23;8.48;;;-0.40;99.90;;;;;;5108808;28;20046;-75
2022/12/11 02:58:49;;;;;;;23.45;8.20;;;-0.90;99.90;;;;;;5109157;28;20048;-76
2022/12/11 03:01:15;;;;;;;30.77;9.18;;;-0.90;99.90;;;;;;5091882;28;20098;-76
2022/12/11 03:03:42;;;;;;;26.50;8.75;;;-0.90;99.90;;;;;;5092547;28;20484;-75
2022/12/11 03:06:17;;;;;;;29.45;8.80;;;-0.60;99.90;;;;;;5108619;28;20085;-76
2022/12/11 03:08:44;;;;;;;22.10;8.50;;;-0.90;99.90;;;;;;5108908;28;20036;-75
2022/12/11 03:11:12;;;;;;;23.75;8.82;;;-0.10;99.90;;;;;;5092323;28;20042;-76
2022/12/11 03:13:41;;;;;;;21.35;9.40;;;0.20;99.90;;;;;;5127409;28;20048;-75
2022/12/11 03:16:36;;;;;;;22.70;8.93;;;-0.90;99.90;;;;;;5094535;28;20036;-78
2022/12/11 03:19:35;;;;;;;22.42;8.55;;;-0.90;99.90;;;;;;5095711;28;20458;-78
2022/12/11 03:22:47;;;;;;;24.30;9.57;;;-0.80;99.90;;;;;;5112276;28;20542;-78
2022/12/11 03:25:24;;;;;;;30.13;9.30;;;-0.80;99.90;;;;;;5092433;28;20475;-78
2022/12/11 03:28:00;;;;;;;26.48;9.90;;;-0.70;99.90;;;;;;5096046;28;20039;-78
2022/12/11 03:30:30;;;;;;;24.20;9.75;;;-0.80;99.90;;;;;;5112290;28;20127;-77
2022/12/11 03:33:24;;;;;;;24.40;9.48;;;0.00;99.90;;;;;;5095635;28;20123;-77
2022/12/11 03:35:55;;;;;;;24.08;8.50;;;-0.80;99.90;;;;;;5095324;28;20055;-78
2022/12/11 03:38:48;;;;;;;26.67;8.75;;;-0.80;99.90;;;;;;5095349;28;20040;-75
2022/12/11 03:41:20;;;;;;;28.30;9.73;;;-0.80;99.90;;;;;;5076235;28;20087;-75
2022/12/11 03:43:51;;;;;;;26.80;9.65;;;0.30;99.90;;;;;;5095612;28;20488;-76
2022/12/11 03:46:22;;;;;;;26.67;8.98;;;-1.50;99.90;;;;;;5111816;28;20415;-75
2022/12/11 03:48:50;;;;;;;25.45;9.60;;;-0.80;99.90;;;;;;5095710;28;20051;-75
2022/12/11 03:51:18;;;;;;;24.27;9.32;;;-0.80;99.90;;;;;;5111772;28;20036;-75
2022/12/11 03:53:46;;;;;;;26.00;9.55;;;-0.30;99.90;;;;;;5095675;28;20105;-75
2022/12/11 03:56:14;;;;;;;25.92;9.77;;;-0.70;99.90;;;;;;5111574;28;20401;-75
2022/12/11 03:58:41;;;;;;;30.67;10.05;;;0.40;99.90;;;;;;5095168;28;20044;-75
2022/12/11 04:01:09;;;;;;;27.40;9.60;;;-0.70;99.90;;;;;;5075059;28;20504;-75
2022/12/11 04:03:37;;;;;;;31.70;10.57;;;-0.50;99.90;;;;;;5074733;28;20115;-75
2022/12/11 04:06:04;;;;;;;25.20;9.13;;;-0.70;99.90;;;;;;5108306;28;20102;-75
2022/12/11 04:08:31;;;;;;;29.92;9.65;;;-0.70;99.90;;;;;;5058500;28;20041;-75
2022/12/11 04:13:44;;;;;;;27.55;9.77;;;-0.70;99.90;;;;;;5098486;28;20036;-75
2022/12/11 04:16:10;;;;;;;25.65;10.13;;;-0.60;99.90;;;;;;5094880;28;20488;-75
2022/12/11 04:24:16;;;;;;;32.75;9.50;;;-0.50;99.90;;;;;;5097089;28;20123;-75
2022/12/11 04:26:46;;;;;;;27.90;9.77;;;-0.60;99.90;;;;;;5096123;28;20075;-75
2022/12/11 04:29:25;;;;;;;26.45;10.20;;;-0.60;99.90;;;;;;5096036;28;20534;-75
2022/12/11 04:31:52;;;;;;;27.67;9.85;;;-0.60;99.90;;;;;;5077886;28;20047;-75
2022/12/11 04:34:18;;;;;;;30.58;9.15;;;-0.60;99.90;;;;;;5111199;28;20487;-75
2022/12/11 04:36:45;;;;;;;27.95;9.05;;;-0.60;99.90;;;;;;5094767;28;20040;-75
2022/12/11 04:39:12;;;;;;;35.33;9.57;;;-0.60;99.90;;;;;;5094847;28;20051;-74
2022/12/11 04:41:40;;;;;;;26.70;9.20;;;-0.60;99.90;;;;;;5094402;28;20051;-75
2022/12/11 04:44:07;;;;;;;25.77;9.15;;;-0.60;99.90;;;;;;5077872;28;20181;-75
2022/12/11 04:46:35;;;;;;;23.77;9.52;;;0.20;99.90;;;;;;5077677;28;20089;-75
2022/12/11 04:49:01;;;;;;;29.83;9.95;;;0.10;99.90;;;;;;5110928;28;20055;-75
2022/12/11 04:51:28;;;;;;;29.52;10.50;;;-0.40;99.90;;;;;;5094146;28;20040;-75
2022/12/11 04:53:55;;;;;;;26.02;8.98;;;0.80;99.90;;;;;;5110717;28;20048;-75
2022/12/11 04:56:21;;;;;;;26.70;8.77;;;0.10;99.90;;;;;;5093838;28;20075;-75
2022/12/11 04:58:48;;;;;;;26.33;9.38;;;-0.50;99.90;;;;;;5110832;28;20467;-75
2022/12/11 05:01:20;;;;;;;29.52;9.45;;;0.70;99.90;;;;;;5110619;28;20036;-75
2022/12/11 05:03:47;;;;;;;25.55;9.40;;;-0.50;99.90;;;;;;5094134;28;20044;-75
2022/12/11 05:06:13;;;;;;;25.13;9.10;;;-0.50;99.90;;;;;;5077552;28;20373;-75
2022/12/11 05:08:42;;;;;;;27.33;9.57;;;-0.50;99.90;;;;;;5093464;28;20101;-75
2022/12/11 05:11:13;;;;;;;24.45;8.73;;;-0.50;99.90;;;;;;5094284;28;20074;-75
2022/12/11 05:13:40;;;;;;;27.67;9.00;;;-0.50;99.90;;;;;;5110259;28;20044;-75
2022/12/11 05:16:09;;;;;;;26.30;9.95;;;-0.50;99.90;;;;;;5110661;28;20032;-75
2022/12/11 05:18:38;;;;;;;30.33;10.20;;;0.70;99.90;;;;;;5109792;28;20062;-76
2022/12/11 05:21:07;;;;;;;27.95;9.57;;;-0.50;99.90;;;;;;5110081;28;20051;-75
2022/12/11 05:23:34;;;;;;;21.80;8.80;;;0.80;99.90;;;;;;5110038;28;20412;-75
2022/12/11 05:26:09;;;;;;;26.27;8.93;;;0.50;99.90;;;;;;5093619;28;20036;-75
2022/12/11 05:28:38;;;;;;;24.73;9.50;;;-0.50;99.90;;;;;;5093447;28;20028;-75
2022/12/11 05:31:10;;;;;;;26.08;8.85;;;0.60;99.90;;;;;;5128360;28;20523;-75
2022/12/11 05:33:37;;;;;;;27.73;9.48;;;0.40;99.90;;;;;;5110280;28;20544;-75
2022/12/11 05:36:05;;;;;;;25.73;9.90;;;0.30;99.90;;;;;;5093586;28;20044;-75
2022/12/11 05:38:32;;;;;;;31.20;10.13;;;-0.40;99.90;;;;;;5093315;28;20141;-75
2022/12/11 05:41:01;;;;;;;27.50;10.25;;;-0.40;99.90;;;;;;5093158;28;20081;-75
2022/12/11 05:43:29;;;;;;;29.40;9.45;;;-0.50;99.90;;;;;;5109764;28;20113;-75
2022/12/11 05:46:11;;;;;;;27.23;10.13;;;-0.20;99.90;;;;;;5109840;28;20079;-75
2022/12/11 05:48:40;;;;;;;26.40;9.55;;;-0.50;99.90;;;;;;5093468;28;20044;-75
2022/12/11 05:51:07;;;;;;;27.42;9.10;;;0.30;99.90;;;;;;5093510;28;20083;-75
2022/12/11 05:53:37;;;;;;;25.23;8.52;;;0.60;99.90;;;;;;5093009;28;20043;-75
2022/12/11 05:56:10;;;;;;;28.05;10.15;;;-0.40;99.90;;;;;;5075702;28;20091;-75
2022/12/11 05:58:38;;;;;;;29.25;10.30;;;0.30;99.90;;;;;;5110017;28;20051;-75
2022/12/11 06:01:11;;;;;;;24.25;9.25;;;0.20;99.90;;;;;;5093273;28;20039;-75
2022/12/11 06:03:38;;;;;;;30.77;10.40;;;0.80;99.90;;;;;;5109536;28;20450;-75
2022/12/11 06:06:07;;;;;;;24.95;10.07;;;0.50;99.90;;;;;;5092707;28;20131;-75
2022/12/11 06:08:34;;;;;;;29.08;10.35;;;-0.40;99.90;;;;;;5076520;28;20040;-75
2022/12/11 06:11:01;;;;;;;28.73;11.13;;;-0.40;99.90;;;;;;5109600;28;20051;-75
2022/12/11 06:13:28;;;;;;;30.10;11.15;;;-0.30;99.90;;;;;;5093010;28;20403;-75
2022/12/11 06:16:03;;;;;;;25.30;9.75;;;-0.40;99.90;;;;;;5109582;28;20047;-75
2022/12/11 06:18:35;;;;;;;33.22;10.13;;;-0.40;99.90;;;;;;5092728;28;20148;-76
2022/12/11 06:21:20;;;;;;;28.67;10.02;;;-0.40;99.90;;;;;;5092944;28;20088;-75
2022/12/11 06:23:48;;;;;;;28.85;10.05;;;-0.40;99.90;;;;;;5109706;28;20044;-75
2022/12/11 06:26:17;;;;;;;31.90;10.88;;;-0.40;99.90;;;;;;5110068;28;20044;-75
2022/12/11 06:28:44;;;;;;;30.10;10.68;;;-0.40;99.90;;;;;;5109435;28;20460;-75
2022/12/11 06:31:11;;;;;;;30.65;10.68;;;-0.40;99.90;;;;;;5092708;28;20093;-75
2022/12/11 06:33:38;;;;;;;29.25;11.30;;;-0.40;99.90;;;;;;5092703;28;20040;-75
2022/12/11 06:36:12;;;;;;;34.58;9.57;;;0.80;99.90;;;;;;5109622;28;20085;-75
2022/12/11 06:38:39;;;;;;;30.95;11.60;;;-0.40;99.90;;;;;;5092793;28;20453;-75
2022/12/11 06:41:07;;;;;;;37.63;10.82;;;0.90;99.90;;;;;;5109084;28;20119;-75
2022/12/11 06:43:35;;;;;;;32.45;10.45;;;-0.30;99.90;;;;;;5092850;28;20040;-76
2022/12/11 06:46:08;;;;;;;37.85;10.85;;;-0.30;99.90;;;;;;5093068;28;20047;-75
2022/12/11 06:48:34;;;;;;;29.45;10.50;;;-0.30;99.90;;;;;;5092352;28;20044;-75
2022/12/11 06:51:06;;;;;;;32.65;10.57;;;-0.30;99.90;;;;;;5111523;28;20400;-75
2022/12/11 06:53:34;;;;;;;29.55;9.70;;;-0.30;99.90;;;;;;5093351;28;20049;-75
2022/12/11 06:56:06;;;;;;;34.70;10.48;;;-0.40;99.90;;;;;;5092856;28;20052;-75
2022/12/11 06:58:34;;;;;;;28.05;9.77;;;-0.40;99.90;;;;;;5092902;28;20408;-75
2022/12/11 07:01:02;;;;;;;33.60;10.90;;;0.50;99.90;;;;;;5093089;28;20051;-75
2022/12/11 07:03:29;;;;;;;28.80;10.70;;;0.60;99.90;;;;;;5094137;28;20075;-75
2022/12/11 07:06:01;;;;;;;29.90;10.35;;;0.40;99.90;;;;;;5112900;28;20072;-75
2022/12/11 07:08:28;;;;;;;31.23;10.98;;;-0.40;99.90;;;;;;5096251;28;20044;-75
2022/12/11 07:11:01;;;;;;;33.70;11.02;;;-0.40;99.90;;;;;;5095981;28;20130;-75
2022/12/11 07:13:27;;;;;;;27.48;10.02;;;-0.40;99.90;;;;;;5096192;28;20403;-75
2022/12/11 07:15:56;;;;;;;25.90;10.02;;;-0.10;99.90;;;;;;5079208;28;20132;-75
2022/12/11 07:18:23;;;;;;;29.48;10.32;;;0.50;99.90;;;;;;5095815;28;20101;-75
2022/12/11 07:20:49;;;;;;;32.67;11.27;;;-0.40;99.90;;;;;;5112306;28;20500;-75
2022/12/11 07:23:16;;;;;;;27.75;10.68;;;0.60;99.90;;;;;;5079580;28;20032;-75
2022/12/11 07:25:43;;;;;;;35.35;10.82;;;0.90;99.90;;;;;;5079348;28;20036;-75
2022/12/11 07:28:10;;;;;;;30.05;10.57;;;-0.30;99.90;;;;;;5112734;28;20089;-75
2022/12/11 07:30:39;;;;;;;34.13;11.48;;;-0.40;99.90;;;;;;5130458;28;20055;-75
2022/12/11 07:33:06;;;;;;;35.63;11.02;;;0.70;99.90;;;;;;5095641;28;20448;-75
2022/12/11 07:35:34;;;;;;;32.15;11.25;;;0.50;99.90;;;;;;5095541;28;20117;-75
2022/12/11 07:38:01;;;;;;;31.55;11.18;;;1.00;99.90;;;;;;5095490;28;20044;-75
2022/12/11 07:40:27;;;;;;;30.75;11.48;;;-0.30;99.90;;;;;;5097522;28;20518;-77
2022/12/11 07:42:54;;;;;;;31.75;10.73;;;-0.30;99.90;;;;;;5078788;28;20040;-77
2022/12/11 07:45:25;;;;;;;27.63;10.23;;;-0.40;99.90;;;;;;5112103;28;20503;-77
2022/12/11 07:47:51;;;;;;;29.65;11.50;;;-0.30;99.90;;;;;;5095214;28;20059;-77
2022/12/11 07:50:18;;;;;;;30.40;10.45;;;-0.40;99.90;;;;;;5078801;28;20036;-77
2022/12/11 07:52:45;;;;;;;30.17;10.70;;;0.10;99.90;;;;;;5094906;28;20048;-77
2022/12/11 07:55:12;;;;;;;34.25;11.05;;;-0.40;99.90;;;;;;5078759;28;20040;-78
2022/12/11 07:57:38;;;;;;;29.35;10.18;;;0.40;99.90;;;;;;5111504;28;20040;-77
2022/12/11 08:00:07;;;;;;;29.73;10.43;;;-0.40;99.90;;;;;;5088042;28;20046;-77
2022/12/11 08:02:35;;;;;;;31.10;9.98;;;-0.40;99.90;;;;;;5089933;28;20044;-77
2022/12/11 08:05:01;;;;;;;28.70;9.65;;;-0.20;99.90;;;;;;5094399;28;20044;-77
2022/12/11 08:07:28;;;;;;;28.13;9.88;;;-0.40;99.90;;;;;;5113017;28;20036;-77
2022/12/11 08:09:55;;;;;;;30.38;10.43;;;0.10;99.90;;;;;;5111373;28;20514;-77
2022/12/11 08:12:21;;;;;;;33.25;10.10;;;-0.10;99.90;;;;;;5079611;28;20131;-76
2022/12/11 08:14:48;;;;;;;27.33;10.50;;;0.50;99.90;;;;;;5114466;28;20085;-77
2022/12/11 08:17:15;;;;;;;31.75;10.10;;;-0.40;99.90;;;;;;5062060;28;20043;-76
2022/12/11 08:19:41;;;;;;;36.58;10.85;;;0.30;99.90;;;;;;5072804;28;20419;-76
2022/12/11 08:22:08;;;;;;;36.25;11.35;;;-0.40;99.90;;;;;;5095080;28;20501;-76
2022/12/11 08:24:35;;;;;;;29.58;9.75;;;0.50;99.90;;;;;;5085845;28;20079;-77
2022/12/11 08:27:01;;;;;;;29.27;10.23;;;0.70;99.90;;;;;;5076994;28;20047;-77
2022/12/11 08:29:28;;;;;;;34.95;10.90;;;-0.30;99.90;;;;;;5045462;28;20118;-77
2022/12/11 08:31:55;;;;;;;33.22;10.40;;;0.10;99.90;;;;;;5084367;28;20035;-77
2022/12/11 08:34:25;;;;;;;29.70;10.85;;;-0.30;99.90;;;;;;5097382;28;20042;-77
2022/12/11 08:36:52;;;;;;;25.50;9.48;;;-0.30;99.90;;;;;;5094541;28;20044;-77
2022/12/11 08:39:18;;;;;;;27.13;10.50;;;-0.30;99.90;;;;;;5110655;28;20098;-78
2022/12/11 08:41:45;;;;;;;29.20;10.38;;;0.40;99.90;;;;;;5094122;28;20127;-78
2022/12/11 08:44:18;;;;;;;26.77;10.07;;;-0.30;99.90;;;;;;5110711;28;20509;-77
2022/12/11 08:46:45;;;;;;;31.63;10.73;;;0.30;99.90;;;;;;5128939;28;20040;-77
2022/12/11 08:49:12;;;;;;;27.75;10.15;;;1.00;99.90;;;;;;5094014;28;20523;-77
2022/12/11 08:51:46;;;;;;;26.00;9.35;;;-0.20;99.90;;;;;;5079357;28;20455;-76
2022/12/11 08:54:13;;;;;;;23.50;9.05;;;-0.20;99.90;;;;;;5077379;28;20036;-76
2022/12/11 08:56:39;;;;;;;24.40;8.45;;;-0.20;99.90;;;;;;5094186;28;20043;-76
2022/12/11 08:59:06;;;;;;;23.63;9.20;;;-0.20;99.90;;;;;;5077814;28;20036;-76
2022/12/11 09:01:33;;;;;;;23.25;8.90;;;1.10;99.90;;;;;;5077389;28;20040;-76
2022/12/11 09:03:59;;;;;;;30.33;9.82;;;-0.20;99.90;;;;;;5078627;28;20043;-76
2022/12/11 09:06:28;;;;;;;27.77;9.82;;;0.20;99.90;;;;;;5072398;28;20058;-76
2022/12/11 09:08:57;;;;;;;27.92;9.85;;;-0.20;99.90;;;;;;5072953;28;20461;-77
2022/12/11 09:11:27;;;;;;;31.40;10.55;;;0.70;99.90;;;;;;5065895;28;20047;-76
2022/12/11 09:13:54;;;;;;;31.25;10.00;;;-0.20;99.90;;;;;;5093042;28;20036;-76
2022/12/11 09:16:23;;;;;;;32.33;11.77;;;-0.20;99.90;;;;;;5109791;28;20473;-76
2022/12/11 09:18:53;;;;;;;40.60;11.82;;;-0.10;99.90;;;;;;5092806;28;20056;-76
2022/12/11 09:21:22;;;;;;;35.90;11.95;;;0.50;99.90;;;;;;5108476;28;20412;-76
2022/12/11 09:23:52;;;;;;;35.40;11.45;;;-0.10;99.90;;;;;;5093138;28;20028;-76
2022/12/11 09:26:19;;;;;;;36.45;12.05;;;-0.10;99.90;;;;;;5093172;28;20066;-76
2022/12/11 09:28:46;;;;;;;40.10;11.80;;;-0.10;99.90;;;;;;5076677;28;20040;-76
2022/12/11 09:31:16;;;;;;;33.72;11.02;;;0.00;99.90;;;;;;5092653;28;20036;-76
2022/12/11 09:33:44;;;;;;;33.58;12.30;;;-0.10;99.90;;;;;;5092773;28;20404;-76
2022/12/11 09:36:11;;;;;;;31.65;10.55;;;-0.10;99.90;;;;;;5092275;28;20040;-76
2022/12/11 09:38:38;;;;;;;33.20;11.18;;;-0.10;99.90;;;;;;5092663;28;20430;-77
2022/12/11 09:41:39;;;;;;;33.35;11.18;;;1.20;99.90;;;;;;5092425;28;20039;-76
2022/12/11 09:44:15;;;;;;;32.70;10.80;;;0.30;99.90;;;;;;5089825;28;20056;-77
2022/12/11 09:46:43;;;;;;;33.92;12.18;;;-0.10;99.90;;;;;;5093265;28;20036;-76
2022/12/11 09:49:27;;;;;;;36.45;11.85;;;-0.10;99.90;;;;;;5091169;28;20596;-77
2022/12/11 09:52:10;;;;;;;29.67;11.80;;;1.10;99.90;;;;;;5092795;28;20050;-77
2022/12/11 09:54:45;;;;;;;35.17;11.98;;;-0.10;99.90;;;;;;5098060;28;20046;-76
2022/12/11 09:57:36;;;;;;;33.30;10.93;;;-0.10;99.90;;;;;;5094437;28;20052;-77
2022/12/11 10:00:12;;;;;;;28.77;10.90;;;0.00;99.90;;;;;;5092308;28;20388;-77
2022/12/11 10:03:17;;;;;;;37.88;13.88;;;0.00;99.90;;;;;;5092597;28;20453;-77
2022/12/11 10:05:55;;;;;;;37.25;12.48;;;0.00;99.90;;;;;;5108926;28;20119;-76
2022/12/11 10:08:48;;;;;;;34.65;12.75;;;0.00;99.90;;;;;;5092855;28;20044;-77
2022/12/11 10:11:42;;;;;;;36.67;11.93;;;0.00;99.90;;;;;;5092182;28;20496;-77
2022/12/11 10:14:23;;;;;;;33.15;11.85;;;0.00;99.90;;;;;;5091601;28;20079;-77
2022/12/11 10:17:06;;;;;;;35.17;12.25;;;0.00;99.90;;;;;;5110531;28;20093;-77
2022/12/11 10:19:34;;;;;;;38.92;12.20;;;0.00;99.90;;;;;;5107588;28;20083;-76
2022/12/11 10:22:03;;;;;;;35.25;13.38;;;0.00;99.90;;;;;;5075894;28;20401;-77
2022/12/11 10:24:49;;;;;;;35.53;12.18;;;0.00;99.90;;;;;;5058526;28;20032;-76
2022/12/11 10:27:18;;;;;;;;;;;0.70;99.90;;;;;;5097004;28;20043;-77
2022/12/11 10:29:47;;;;;;;34.72;12.65;;;0.00;99.90;;;;;;5113191;28;19930;-77
2022/12/11 10:32:26;;;;;;;38.35;12.60;;;0.10;99.90;;;;;;5106216;28;20040;-77
2022/12/11 10:35:01;;;;;;;40.47;13.02;;;0.40;99.90;;;;;;5095810;28;20096;-77
2022/12/11 10:37:28;;;;;;;38.45;11.43;;;0.10;99.90;;;;;;5080606;28;20101;-77
2022/12/11 10:39:55;;;;;;;35.55;12.20;;;0.10;99.90;;;;;;5079718;28;20131;-77
2022/12/11 10:42:22;;;;;;;31.35;11.45;;;0.10;99.90;;;;;;5079574;28;20055;-77
2022/12/11 10:44:56;;;;;;;30.65;12.35;;;0.10;99.90;;;;;;5063627;28;20403;-77
2022/12/11 10:47:29;;;;;;;31.90;11.35;;;0.30;99.90;;;;;;5077165;28;20047;-77
2022/12/11 10:50:01;;;;;;;27.20;11.25;;;0.20;99.90;;;;;;5076516;28;20036;-77
2022/12/11 10:52:39;;;;;;;31.10;11.57;;;0.20;99.90;;;;;;5094663;28;20051;-77
2022/12/11 10:55:35;;;;;;;34.08;11.05;;;0.20;99.90;;;;;;5096810;28;20555;-77
2022/12/11 10:58:04;;;;;;;35.73;12.57;;;0.20;99.90;;;;;;5095745;28;20044;-78
2022/12/11 11:00:40;;;;;;;27.02;10.48;;;0.90;99.90;;;;;;5117570;28;20298;-77
2022/12/11 11:03:25;;;;;;;34.90;11.70;;;0.20;99.90;;;;;;5112507;28;20800;-77
2022/12/11 11:06:06;;;;;;;33.75;11.43;;;0.20;99.90;;;;;;5083438;28;20043;-76
2022/12/11 11:08:43;;;;;;;33.45;11.55;;;0.00;99.90;;;;;;5112954;28;20036;-76
2022/12/11 11:11:16;;;;;;;;;;;0.20;99.90;;;;;;5096548;28;20036;-77
2022/12/11 11:13:49;;;;;;;30.80;10.80;;;0.20;99.90;;;;;;5096407;28;19930;-77
2022/12/11 11:16:19;;;;;;;27.95;11.05;;;0.20;99.90;;;;;;5112288;28;20088;-77
2022/12/11 11:18:52;;;;;;;27.70;11.10;;;0.20;99.90;;;;;;5095456;28;20059;-77
2022/12/11 11:21:22;;;;;;;25.85;10.30;;;1.00;99.90;;;;;;5095337;28;20126;-76
2022/12/11 11:23:53;;;;;;;28.40;10.85;;;0.30;99.90;;;;;;5095078;28;20032;-77
2022/12/11 11:26:24;;;;;;;30.30;10.80;;;0.20;99.90;;;;;;5094765;28;20424;-76
2022/12/11 11:28:57;;;;;;;28.52;11.00;;;0.20;99.90;;;;;;5094815;28;20036;-76
2022/12/11 11:31:33;;;;;;;30.00;11.30;;;0.20;99.90;;;;;;5110244;28;20055;-77
2022/12/11 11:34:21;;;;;;;33.15;11.68;;;0.20;99.90;;;;;;5095186;28;20047;-76
2022/12/11 11:36:59;;;;;;;31.02;11.27;;;0.20;99.90;;;;;;5078945;28;20047;-77
2022/12/11 11:39:43;;;;;;;28.38;10.13;;;0.40;99.90;;;;;;5111641;28;20105;-77
2022/12/11 11:42:17;;;;;;;27.40;10.93;;;0.20;99.90;;;;;;5111853;28;20553;-77
2022/12/11 11:45:10;;;;;;;30.75;11.52;;;1.20;99.90;;;;;;5111568;28;20036;-77
2022/12/11 11:47:49;;;;;;;30.33;11.77;;;0.20;99.90;;;;;;5098079;28;20072;-77
2022/12/11 11:50:27;;;;;;;30.35;10.98;;;0.20;99.90;;;;;;5094897;28;20035;-76
2022/12/11 11:53:12;;;;;;;31.25;11.30;;;0.20;99.90;;;;;;5079076;28;20036;-76
2022/12/11 11:55:45;;;;;;;31.77;11.73;;;0.20;99.90;;;;;;5111846;28;20043;-76
2022/12/11 11:58:21;;;;;;;29.73;11.18;;;0.30;99.90;;;;;;5094949;28;20480;-77
2022/12/11 12:00:49;;;;;;;30.40;11.18;;;0.30;99.90;;;;;;5111421;28;20495;-76
2022/12/11 12:03:19;;;;;;;29.73;10.88;;;0.30;99.90;;;;;;5094620;28;20028;-77
2022/12/11 12:05:54;;;;;;;28.98;11.50;;;1.40;99.90;;;;;;5094722;28;20036;-76
2022/12/11 12:08:30;;;;;;;38.40;11.93;;;0.30;99.90;;;;;;5111256;28;20051;-76
2022/12/11 12:11:30;;;;;;;31.88;11.98;;;0.30;99.90;;;;;;5094858;28;20075;-76
2022/12/11 12:14:18;;;;;;;30.25;11.02;;;0.30;99.90;;;;;;5111424;28;20052;-76
2022/12/11 12:17:00;;;;;;;34.72;11.43;;;0.30;99.90;;;;;;5111875;28;20047;-76
2022/12/11 12:19:53;;;;;;;33.60;11.77;;;0.20;99.90;;;;;;5093753;28;20519;-77
2022/12/11 12:22:53;;;;;;;33.90;11.95;;;0.30;99.90;;;;;;5094506;28;20044;-76
2022/12/11 12:25:34;;;;;;;30.20;12.63;;;0.30;99.90;;;;;;5110525;28;20052;-77
2022/12/11 12:28:35;;;;;;;35.45;11.60;;;0.90;99.90;;;;;;5094917;28;20071;-76
2022/12/11 12:31:01;;;;;;;33.67;12.18;;;0.30;99.90;;;;;;5091697;28;20468;-76
2022/12/11 12:34:03;;;;;;;30.45;11.70;;;1.40;99.90;;;;;;5083450;28;20031;-77
2022/12/11 12:36:47;;;;;;;35.53;12.27;;;0.30;99.90;;;;;;5096468;28;20097;-76
2022/12/11 12:39:19;;;;;;;27.55;10.82;;;0.30;99.90;;;;;;5093791;28;20036;-77
2022/12/11 12:42:01;;;;;;;31.30;11.75;;;0.30;99.90;;;;;;5093605;28;20043;-76
2022/12/11 12:44:34;;;;;;;31.60;12.00;;;0.30;99.90;;;;;;5093849;28;20044;-77
2022/12/11 12:47:12;;;;;;;30.08;11.73;;;1.20;99.90;;;;;;5109852;28;20039;-77
2022/12/11 12:49:46;;;;;;;32.03;11.80;;;0.30;99.90;;;;;;5113552;28;20403;-76
2022/12/11 12:52:28;;;;;;;37.28;12.80;;;0.30;99.90;;;;;;5127600;28;20074;-77
2022/12/11 12:55:15;;;;;;;29.77;12.45;;;0.80;99.90;;;;;;5110534;28;20039;-76
2022/12/11 12:57:59;;;;;;;28.25;11.80;;;0.30;99.90;;;;;;5087273;28;20036;-77
2022/12/11 13:00:44;;;;;;;35.58;12.70;;;1.10;99.90;;;;;;5077071;28;20036;-76
2022/12/11 13:03:25;;;;;;;35.53;11.83;;;0.20;99.90;;;;;;5110542;28;20043;-76
2022/12/11 13:05:56;;;;;;;33.28;12.10;;;0.30;99.90;;;;;;5093124;28;20048;-76
2022/12/11 13:08:26;;;;;;;28.40;11.48;;;0.40;99.90;;;;;;5110208;28;20032;-76
2022/12/11 13:11:07;;;;;;;35.75;12.48;;;1.10;99.90;;;;;;5094785;28;20047;-76